sensor_id;sensor_type;location;lat;lon;timestamp;P1;durP1;ratioP1;P2;durP2;ratioP2
850;SDS011;412;51.400;7.480;2023-02-18T00:01:54;16.60;;;14.80;;
850;SDS011;412;51.400;7.480;2023-02-18T00:04:20;18.00;;;15.10;;
850;SDS011;412;51.400;7.480;2023-02-18T00:06:46;16.73;;;14.13;;
850;SDS011;412;51.400;7.480;2023-02-18T00:09:12;17.50;;;14.00;;
850;SDS011;412;51.400;7.480;2023-02-18T00:11:37;15.90;;;14.33;;
850;SDS011;412;51.400;7.480;2023-02-18T00:14:05;17.37;;;14.57;;
850;SDS011;412;51.400;7.480;2023-02-18T00:16:38;16.50;;;14.33;;
850;SDS011;412;51.400;7.480;2023-02-18T00:19:05;20.47;;;14.17;;
850;SDS011;412;51.400;7.480;2023-02-18T00:21:32;16.37;;;14.57;;
850;SDS011;412;51.400;7.480;2023-02-18T00:23:58;16.60;;;14.87;;
850;SDS011;412;51.400;7.480;2023-02-18T00:26:24;16.77;;;14.70;;
850;SDS011;412;51.400;7.480;2023-02-18T00:28:50;15.80;;;13.97;;
850;SDS011;412;51.400;7.480;2023-02-18T00:31:19;16.83;;;14.33;;
850;SDS011;412;51.400;7.480;2023-02-18T00:33:47;17.10;;;15.40;;
850;SDS011;412;51.400;7.480;2023-02-18T00:36:14;15.30;;;13.43;;
850;SDS011;412;51.400;7.480;2023-02-18T00:38:48;15.63;;;14.00;;
850;SDS011;412;51.400;7.480;2023-02-18T00:41:14;16.50;;;14.80;;
850;SDS011;412;51.400;7.480;2023-02-18T00:43:41;17.20;;;15.17;;
850;SDS011;412;51.400;7.480;2023-02-18T00:46:07;15.80;;;14.20;;
850;SDS011;412;51.400;7.480;2023-02-18T00:48:34;16.53;;;14.83;;
850;SDS011;412;51.400;7.480;2023-02-18T00:51:00;15.80;;;14.20;;
850;SDS011;412;51.400;7.480;2023-02-18T00:53:27;15.80;;;14.17;;
850;SDS011;412;51.400;7.480;2023-02-18T00:55:53;15.83;;;14.20;;
850;SDS011;412;51.400;7.480;2023-02-18T00:58:19;15.87;;;14.07;;
850;SDS011;412;51.400;7.480;2023-02-18T01:00:45;15.70;;;14.10;;
850;SDS011;412;51.400;7.480;2023-02-18T01:03:11;14.33;;;12.90;;
850;SDS011;412;51.400;7.480;2023-02-18T01:05:38;15.23;;;13.63;;
850;SDS011;412;51.400;7.480;2023-02-18T01:08:04;17.23;;;14.77;;
850;SDS011;412;51.400;7.480;2023-02-18T01:10:31;16.47;;;14.67;;
850;SDS011;412;51.400;7.480;2023-02-18T01:12:57;14.97;;;13.37;;
850;SDS011;412;51.400;7.480;2023-02-18T01:15:23;17.10;;;13.33;;
850;SDS011;412;51.400;7.480;2023-02-18T01:17:49;14.53;;;13.03;;
850;SDS011;412;51.400;7.480;2023-02-18T01:20:16;18.03;;;14.60;;
850;SDS011;412;51.400;7.480;2023-02-18T01:22:43;14.90;;;13.37;;
850;SDS011;412;51.400;7.480;2023-02-18T01:25:09;14.37;;;12.87;;
850;SDS011;412;51.400;7.480;2023-02-18T01:27:36;17.20;;;13.00;;
850;SDS011;412;51.400;7.480;2023-02-18T01:30:03;14.93;;;13.43;;
850;SDS011;412;51.400;7.480;2023-02-18T01:32:30;14.97;;;13.30;;
850;SDS011;412;51.400;7.480;2023-02-18T01:34:55;15.27;;;13.20;;
850;SDS011;412;51.400;7.480;2023-02-18T01:37:21;15.53;;;13.90;;
850;SDS011;412;51.400;7.480;2023-02-18T01:39:47;15.20;;;13.70;;
850;SDS011;412;51.400;7.480;2023-02-18T01:42:20;16.37;;;13.07;;
850;SDS011;412;51.400;7.480;2023-02-18T01:44:48;16.47;;;14.67;;
850;SDS011;412;51.400;7.480;2023-02-18T01:47:14;14.27;;;12.77;;
850;SDS011;412;51.400;7.480;2023-02-18T01:49:40;16.20;;;14.30;;
850;SDS011;412;51.400;7.480;2023-02-18T01:52:16;14.90;;;13.40;;
850;SDS011;412;51.400;7.480;2023-02-18T01:54:46;15.23;;;13.73;;
850;SDS011;412;51.400;7.480;2023-02-18T01:57:19;15.87;;;13.23;;
850;SDS011;412;51.400;7.480;2023-02-18T01:59:51;15.20;;;13.60;;
850;SDS011;412;51.400;7.480;2023-02-18T02:02:24;15.10;;;13.57;;
850;SDS011;412;51.400;7.480;2023-02-18T02:04:52;17.27;;;13.47;;
850;SDS011;412;51.400;7.480;2023-02-18T02:07:18;14.33;;;12.93;;
850;SDS011;412;51.400;7.480;2023-02-18T02:09:47;16.10;;;14.17;;
850;SDS011;412;51.400;7.480;2023-02-18T02:14:57;14.53;;;12.93;;
850;SDS011;412;51.400;7.480;2023-02-18T02:23:14;13.90;;;12.43;;
850;SDS011;412;51.400;7.480;2023-02-18T02:28:37;13.40;;;12.00;;
850;SDS011;412;51.400;7.480;2023-02-18T02:39:37;14.13;;;11.67;;
850;SDS011;412;51.400;7.480;2023-02-18T02:42:58;15.23;;;13.53;;
850;SDS011;412;51.400;7.480;2023-02-18T02:54:35;13.37;;;11.10;;
850;SDS011;412;51.400;7.480;2023-02-18T02:57:07;11.47;;;10.37;;
850;SDS011;412;51.400;7.480;2023-02-18T03:00:00;11.07;;;9.97;;
850;SDS011;412;51.400;7.480;2023-02-18T03:13:28;11.40;;;10.20;;
850;SDS011;412;51.400;7.480;2023-02-18T03:16:19;10.17;;;9.17;;
850;SDS011;412;51.400;7.480;2023-02-18T03:18:56;10.30;;;9.40;;
850;SDS011;412;51.400;7.480;2023-02-18T03:21:28;10.67;;;9.67;;
850;SDS011;412;51.400;7.480;2023-02-18T03:27:43;10.27;;;9.20;;
850;SDS011;412;51.400;7.480;2023-02-18T03:30:04;10.30;;;9.27;;
850;SDS011;412;51.400;7.480;2023-02-18T03:32:36;8.93;;;7.90;;
850;SDS011;412;51.400;7.480;2023-02-18T03:35:07;9.40;;;8.50;;
850;SDS011;412;51.400;7.480;2023-02-18T03:37:38;10.23;;;9.23;;
850;SDS011;412;51.400;7.480;2023-02-18T03:40:09;10.63;;;9.53;;
850;SDS011;412;51.400;7.480;2023-02-18T03:42:36;10.80;;;9.70;;
850;SDS011;412;51.400;7.480;2023-02-18T03:45:02;9.90;;;8.90;;
850;SDS011;412;51.400;7.480;2023-02-18T03:47:28;10.40;;;9.30;;
850;SDS011;412;51.400;7.480;2023-02-18T03:49:54;11.20;;;9.67;;
850;SDS011;412;51.400;7.480;2023-02-18T03:52:20;9.40;;;8.43;;
850;SDS011;412;51.400;7.480;2023-02-18T03:54:45;9.47;;;8.57;;
850;SDS011;412;51.400;7.480;2023-02-18T03:57:11;8.50;;;7.70;;
850;SDS011;412;51.400;7.480;2023-02-18T03:59:37;9.63;;;8.63;;
850;SDS011;412;51.400;7.480;2023-02-18T04:02:02;9.03;;;8.13;;
850;SDS011;412;51.400;7.480;2023-02-18T04:04:28;8.90;;;8.00;;
850;SDS011;412;51.400;7.480;2023-02-18T04:06:54;8.87;;;7.97;;
850;SDS011;412;51.400;7.480;2023-02-18T04:09:20;9.70;;;7.97;;
850;SDS011;412;51.400;7.480;2023-02-18T04:11:45;8.30;;;7.50;;
850;SDS011;412;51.400;7.480;2023-02-18T04:14:12;8.87;;;7.90;;
850;SDS011;412;51.400;7.480;2023-02-18T04:16:38;9.97;;;8.47;;
850;SDS011;412;51.400;7.480;2023-02-18T04:19:04;8.73;;;7.83;;
850;SDS011;412;51.400;7.480;2023-02-18T04:21:31;10.93;;;8.60;;
850;SDS011;412;51.400;7.480;2023-02-18T04:23:57;8.53;;;7.73;;
850;SDS011;412;51.400;7.480;2023-02-18T04:26:22;8.07;;;7.27;;
850;SDS011;412;51.400;7.480;2023-02-18T04:28:48;7.67;;;6.97;;
850;SDS011;412;51.400;7.480;2023-02-18T04:31:14;8.00;;;7.30;;
850;SDS011;412;51.400;7.480;2023-02-18T04:33:40;7.47;;;6.77;;
850;SDS011;412;51.400;7.480;2023-02-18T04:36:05;7.30;;;6.70;;
850;SDS011;412;51.400;7.480;2023-02-18T04:38:31;6.73;;;6.13;;
850;SDS011;412;51.400;7.480;2023-02-18T04:40:57;7.43;;;6.73;;
850;SDS011;412;51.400;7.480;2023-02-18T04:43:23;7.80;;;7.10;;
850;SDS011;412;51.400;7.480;2023-02-18T04:45:48;5.97;;;5.50;;
850;SDS011;412;51.400;7.480;2023-02-18T04:48:14;5.80;;;5.40;;
850;SDS011;412;51.400;7.480;2023-02-18T04:50:40;4.70;;;4.40;;
850;SDS011;412;51.400;7.480;2023-02-18T04:53:06;5.23;;;4.93;;
850;SDS011;412;51.400;7.480;2023-02-18T04:55:31;5.57;;;5.17;;
850;SDS011;412;51.400;7.480;2023-02-18T04:57:57;5.70;;;5.30;;
850;SDS011;412;51.400;7.480;2023-02-18T05:00:23;5.30;;;5.00;;
850;SDS011;412;51.400;7.480;2023-02-18T05:02:49;5.33;;;5.03;;
850;SDS011;412;51.400;7.480;2023-02-18T05:05:15;5.17;;;4.77;;
850;SDS011;412;51.400;7.480;2023-02-18T05:07:40;4.73;;;4.53;;
850;SDS011;412;51.400;7.480;2023-02-18T05:10:07;4.87;;;4.67;;
850;SDS011;412;51.400;7.480;2023-02-18T05:12:38;4.50;;;4.30;;
850;SDS011;412;51.400;7.480;2023-02-18T05:15:04;4.40;;;4.20;;
850;SDS011;412;51.400;7.480;2023-02-18T05:17:30;4.37;;;4.17;;
850;SDS011;412;51.400;7.480;2023-02-18T05:19:56;4.00;;;3.90;;
850;SDS011;412;51.400;7.480;2023-02-18T05:22:21;3.80;;;3.70;;
850;SDS011;412;51.400;7.480;2023-02-18T05:24:47;4.43;;;4.23;;
850;SDS011;412;51.400;7.480;2023-02-18T05:27:13;3.87;;;3.70;;
850;SDS011;412;51.400;7.480;2023-02-18T05:29:38;3.80;;;3.70;;
850;SDS011;412;51.400;7.480;2023-02-18T05:32:04;3.80;;;3.60;;
850;SDS011;412;51.400;7.480;2023-02-18T05:34:30;3.70;;;3.60;;
850;SDS011;412;51.400;7.480;2023-02-18T05:36:56;3.60;;;3.50;;
850;SDS011;412;51.400;7.480;2023-02-18T05:39:21;3.90;;;3.63;;
850;SDS011;412;51.400;7.480;2023-02-18T05:41:47;3.50;;;3.40;;
850;SDS011;412;51.400;7.480;2023-02-18T05:44:13;3.60;;;3.50;;
850;SDS011;412;51.400;7.480;2023-02-18T05:46:54;4.00;;;3.70;;
850;SDS011;412;51.400;7.480;2023-02-18T05:49:20;3.90;;;3.70;;
850;SDS011;412;51.400;7.480;2023-02-18T05:51:46;3.20;;;3.10;;
850;SDS011;412;51.400;7.480;2023-02-18T05:54:12;2.73;;;2.73;;
850;SDS011;412;51.400;7.480;2023-02-18T05:56:38;3.23;;;3.10;;
850;SDS011;412;51.400;7.480;2023-02-18T05:59:03;3.10;;;3.00;;
850;SDS011;412;51.400;7.480;2023-02-18T06:01:29;3.70;;;3.50;;
850;SDS011;412;51.400;7.480;2023-02-18T06:03:55;3.10;;;3.00;;
850;SDS011;412;51.400;7.480;2023-02-18T06:06:21;3.47;;;3.27;;
850;SDS011;412;51.400;7.480;2023-02-18T06:08:46;2.83;;;2.73;;
850;SDS011;412;51.400;7.480;2023-02-18T06:11:12;2.90;;;2.80;;
850;SDS011;412;51.400;7.480;2023-02-18T06:13:37;3.57;;;3.33;;
850;SDS011;412;51.400;7.480;2023-02-18T06:16:03;3.20;;;3.10;;
850;SDS011;412;51.400;7.480;2023-02-18T06:18:29;3.33;;;3.20;;
850;SDS011;412;51.400;7.480;2023-02-18T06:20:55;3.70;;;3.40;;
850;SDS011;412;51.400;7.480;2023-02-18T06:23:20;3.37;;;3.20;;
850;SDS011;412;51.400;7.480;2023-02-18T06:25:49;3.60;;;3.50;;
850;SDS011;412;51.400;7.480;2023-02-18T06:28:16;4.10;;;3.80;;
850;SDS011;412;51.400;7.480;2023-02-18T06:30:42;4.50;;;4.10;;
850;SDS011;412;51.400;7.480;2023-02-18T06:33:09;4.07;;;3.87;;
850;SDS011;412;51.400;7.480;2023-02-18T06:35:35;3.80;;;3.70;;
850;SDS011;412;51.400;7.480;2023-02-18T06:38:00;5.80;;;5.40;;
850;SDS011;412;51.400;7.480;2023-02-18T06:40:26;5.80;;;5.40;;
850;SDS011;412;51.400;7.480;2023-02-18T06:42:52;5.17;;;4.87;;
850;SDS011;412;51.400;7.480;2023-02-18T06:45:18;5.37;;;4.97;;
850;SDS011;412;51.400;7.480;2023-02-18T06:47:44;6.10;;;5.70;;
850;SDS011;412;51.400;7.480;2023-02-18T06:50:09;4.93;;;4.63;;
850;SDS011;412;51.400;7.480;2023-02-18T06:52:35;5.20;;;4.90;;
850;SDS011;412;51.400;7.480;2023-02-18T06:55:05;4.83;;;4.53;;
850;SDS011;412;51.400;7.480;2023-02-18T06:57:31;5.13;;;4.83;;
850;SDS011;412;51.400;7.480;2023-02-18T06:59:57;6.20;;;5.70;;
850;SDS011;412;51.400;7.480;2023-02-18T07:02:22;4.30;;;4.10;;
850;SDS011;412;51.400;7.480;2023-02-18T07:04:48;5.30;;;4.90;;
850;SDS011;412;51.400;7.480;2023-02-18T07:07:16;4.73;;;4.27;;
850;SDS011;412;51.400;7.480;2023-02-18T07:09:42;3.87;;;3.67;;
850;SDS011;412;51.400;7.480;2023-02-18T07:12:07;21.27;;;14.20;;
850;SDS011;412;51.400;7.480;2023-02-18T07:14:33;75.73;;;48.13;;
850;SDS011;412;51.400;7.480;2023-02-18T07:17:01;13.83;;;12.40;;
850;SDS011;412;51.400;7.480;2023-02-18T07:19:27;4.60;;;4.20;;
850;SDS011;412;51.400;7.480;2023-02-18T07:21:52;4.10;;;3.90;;
850;SDS011;412;51.400;7.480;2023-02-18T07:24:21;4.93;;;4.63;;
850;SDS011;412;51.400;7.480;2023-02-18T07:26:48;5.20;;;4.90;;
850;SDS011;412;51.400;7.480;2023-02-18T07:29:14;5.67;;;5.27;;
850;SDS011;412;51.400;7.480;2023-02-18T07:31:39;5.03;;;4.73;;
850;SDS011;412;51.400;7.480;2023-02-18T07:34:05;5.97;;;5.50;;
850;SDS011;412;51.400;7.480;2023-02-18T07:36:31;5.73;;;5.33;;
850;SDS011;412;51.400;7.480;2023-02-18T07:38:57;5.33;;;5.03;;
850;SDS011;412;51.400;7.480;2023-02-18T07:41:22;5.13;;;4.83;;
850;SDS011;412;51.400;7.480;2023-02-18T07:43:49;4.90;;;4.60;;
850;SDS011;412;51.400;7.480;2023-02-18T07:46:15;4.90;;;4.60;;
850;SDS011;412;51.400;7.480;2023-02-18T07:48:41;5.40;;;5.10;;
850;SDS011;412;51.400;7.480;2023-02-18T07:51:08;4.20;;;4.00;;
850;SDS011;412;51.400;7.480;2023-02-18T07:53:35;4.93;;;4.73;;
850;SDS011;412;51.400;7.480;2023-02-18T07:56:02;4.30;;;4.10;;
850;SDS011;412;51.400;7.480;2023-02-18T07:58:33;4.50;;;4.30;;
850;SDS011;412;51.400;7.480;2023-02-18T08:01:03;4.57;;;4.17;;
850;SDS011;412;51.400;7.480;2023-02-18T08:03:31;4.40;;;4.20;;
850;SDS011;412;51.400;7.480;2023-02-18T08:05:57;3.83;;;3.70;;
850;SDS011;412;51.400;7.480;2023-02-18T08:08:24;4.23;;;4.03;;
850;SDS011;412;51.400;7.480;2023-02-18T08:10:52;3.90;;;3.70;;
850;SDS011;412;51.400;7.480;2023-02-18T08:13:19;3.90;;;3.70;;
850;SDS011;412;51.400;7.480;2023-02-18T08:15:44;4.30;;;4.10;;
850;SDS011;412;51.400;7.480;2023-02-18T08:18:14;4.93;;;4.70;;
850;SDS011;412;51.400;7.480;2023-02-18T08:20:41;4.40;;;4.20;;
850;SDS011;412;51.400;7.480;2023-02-18T08:23:08;4.40;;;4.20;;
850;SDS011;412;51.400;7.480;2023-02-18T08:25:35;3.60;;;3.40;;
850;SDS011;412;51.400;7.480;2023-02-18T08:28:00;3.93;;;3.63;;
850;SDS011;412;51.400;7.480;2023-02-18T08:30:26;3.83;;;3.63;;
850;SDS011;412;51.400;7.480;2023-02-18T08:32:52;3.33;;;3.13;;
850;SDS011;412;51.400;7.480;2023-02-18T08:35:18;3.90;;;3.70;;
850;SDS011;412;51.400;7.480;2023-02-18T08:37:44;3.70;;;3.50;;
850;SDS011;412;51.400;7.480;2023-02-18T08:40:10;3.80;;;3.60;;
850;SDS011;412;51.400;7.480;2023-02-18T08:42:37;3.93;;;3.73;;
850;SDS011;412;51.400;7.480;2023-02-18T08:45:04;3.90;;;3.70;;
850;SDS011;412;51.400;7.480;2023-02-18T08:47:31;3.90;;;3.70;;
850;SDS011;412;51.400;7.480;2023-02-18T08:49:57;3.60;;;3.40;;
850;SDS011;412;51.400;7.480;2023-02-18T08:52:22;2.90;;;2.77;;
850;SDS011;412;51.400;7.480;2023-02-18T08:54:48;3.40;;;3.30;;
850;SDS011;412;51.400;7.480;2023-02-18T08:57:14;4.07;;;3.33;;
850;SDS011;412;51.400;7.480;2023-02-18T08:59:40;3.20;;;3.10;;
850;SDS011;412;51.400;7.480;2023-02-18T09:02:06;3.57;;;3.43;;
850;SDS011;412;51.400;7.480;2023-02-18T09:04:31;3.47;;;3.37;;
850;SDS011;412;51.400;7.480;2023-02-18T09:06:57;3.03;;;2.93;;
850;SDS011;412;51.400;7.480;2023-02-18T09:09:23;3.20;;;3.10;;
850;SDS011;412;51.400;7.480;2023-02-18T09:11:49;3.70;;;3.40;;
850;SDS011;412;51.400;7.480;2023-02-18T09:14:15;3.53;;;3.33;;
850;SDS011;412;51.400;7.480;2023-02-18T09:16:41;4.10;;;3.60;;
850;SDS011;412;51.400;7.480;2023-02-18T09:19:07;4.43;;;3.53;;
850;SDS011;412;51.400;7.480;2023-02-18T09:21:33;3.30;;;3.10;;
850;SDS011;412;51.400;7.480;2023-02-18T09:23:59;3.47;;;3.27;;
850;SDS011;412;51.400;7.480;2023-02-18T09:26:25;4.50;;;3.50;;
850;SDS011;412;51.400;7.480;2023-02-18T09:28:51;3.77;;;3.57;;
850;SDS011;412;51.400;7.480;2023-02-18T09:31:20;3.87;;;3.60;;
850;SDS011;412;51.400;7.480;2023-02-18T09:33:51;3.87;;;3.67;;
850;SDS011;412;51.400;7.480;2023-02-18T09:36:19;4.70;;;3.93;;
850;SDS011;412;51.400;7.480;2023-02-18T09:38:45;4.30;;;3.90;;
850;SDS011;412;51.400;7.480;2023-02-18T09:41:22;5.70;;;3.87;;
850;SDS011;412;51.400;7.480;2023-02-18T09:43:55;5.23;;;3.93;;
850;SDS011;412;51.400;7.480;2023-02-18T09:46:29;3.90;;;3.60;;
850;SDS011;412;51.400;7.480;2023-02-18T09:49:02;4.10;;;3.73;;
850;SDS011;412;51.400;7.480;2023-02-18T09:51:31;4.00;;;3.70;;
850;SDS011;412;51.400;7.480;2023-02-18T09:53:57;3.80;;;3.60;;
850;SDS011;412;51.400;7.480;2023-02-18T09:56:31;4.80;;;3.97;;
850;SDS011;412;51.400;7.480;2023-02-18T09:59:01;5.10;;;4.07;;
850;SDS011;412;51.400;7.480;2023-02-18T10:04:03;7.87;;;3.93;;
850;SDS011;412;51.400;7.480;2023-02-18T10:06:37;4.70;;;4.30;;
850;SDS011;412;51.400;7.480;2023-02-18T10:09:24;7.93;;;4.80;;
850;SDS011;412;51.400;7.480;2023-02-18T10:11:59;4.47;;;4.17;;
850;SDS011;412;51.400;7.480;2023-02-18T10:14:29;4.53;;;4.10;;
850;SDS011;412;51.400;7.480;2023-02-18T10:16:55;8.07;;;5.10;;
850;SDS011;412;51.400;7.480;2023-02-18T10:19:37;6.93;;;4.40;;
850;SDS011;412;51.400;7.480;2023-02-18T10:22:05;7.13;;;5.13;;
850;SDS011;412;51.400;7.480;2023-02-18T10:24:34;6.90;;;4.10;;
850;SDS011;412;51.400;7.480;2023-02-18T10:27:03;5.47;;;4.90;;
850;SDS011;412;51.400;7.480;2023-02-18T10:29:31;5.40;;;4.90;;
850;SDS011;412;51.400;7.480;2023-02-18T10:34:40;5.70;;;5.13;;
850;SDS011;412;51.400;7.480;2023-02-18T10:46:06;6.33;;;5.73;;
850;SDS011;412;51.400;7.480;2023-02-18T10:48:47;8.80;;;6.50;;
850;SDS011;412;51.400;7.480;2023-02-18T10:51:16;9.30;;;6.27;;
850;SDS011;412;51.400;7.480;2023-02-18T10:53:51;7.20;;;6.67;;
850;SDS011;412;51.400;7.480;2023-02-18T10:56:31;6.80;;;5.67;;
850;SDS011;412;51.400;7.480;2023-02-18T11:01:36;6.93;;;6.00;;
850;SDS011;412;51.400;7.480;2023-02-18T11:04:04;6.80;;;6.03;;
850;SDS011;412;51.400;7.480;2023-02-18T11:06:45;7.17;;;5.90;;
850;SDS011;412;51.400;7.480;2023-02-18T11:09:27;8.63;;;5.40;;
850;SDS011;412;51.400;7.480;2023-02-18T11:11:58;6.83;;;5.73;;
850;SDS011;412;51.400;7.480;2023-02-18T11:14:41;6.87;;;6.20;;
850;SDS011;412;51.400;7.480;2023-02-18T11:17:19;6.23;;;5.73;;
850;SDS011;412;51.400;7.480;2023-02-18T11:19:51;5.57;;;5.17;;
850;SDS011;412;51.400;7.480;2023-02-18T11:22:27;6.60;;;4.97;;
850;SDS011;412;51.400;7.480;2023-02-18T11:24:56;6.77;;;5.90;;
850;SDS011;412;51.400;7.480;2023-02-18T11:29:53;5.97;;;5.53;;
850;SDS011;412;51.400;7.480;2023-02-18T11:32:28;6.73;;;6.13;;
850;SDS011;412;51.400;7.480;2023-02-18T11:34:57;6.30;;;5.77;;
850;SDS011;412;51.400;7.480;2023-02-18T11:37:23;6.20;;;5.80;;
850;SDS011;412;51.400;7.480;2023-02-18T11:39:50;6.17;;;5.77;;
850;SDS011;412;51.400;7.480;2023-02-18T11:42:19;6.00;;;5.60;;
850;SDS011;412;51.400;7.480;2023-02-18T11:47:20;5.03;;;4.83;;
850;SDS011;412;51.400;7.480;2023-02-18T11:52:33;4.73;;;4.43;;
850;SDS011;412;51.400;7.480;2023-02-18T11:57:48;4.50;;;4.30;;
850;SDS011;412;51.400;7.480;2023-02-18T12:03:23;4.87;;;4.57;;
850;SDS011;412;51.400;7.480;2023-02-18T12:06:22;5.07;;;4.67;;
850;SDS011;412;51.400;7.480;2023-02-18T12:08:57;4.10;;;4.00;;
850;SDS011;412;51.400;7.480;2023-02-18T12:11:32;4.30;;;4.00;;
850;SDS011;412;51.400;7.480;2023-02-18T12:14:02;3.87;;;3.77;;
850;SDS011;412;51.400;7.480;2023-02-18T12:16:44;4.00;;;3.80;;
850;SDS011;412;51.400;7.480;2023-02-18T12:25:16;3.60;;;3.50;;
850;SDS011;412;51.400;7.480;2023-02-18T12:33:25;4.07;;;3.67;;
850;SDS011;412;51.400;7.480;2023-02-18T12:38:52;3.60;;;3.50;;
850;SDS011;412;51.400;7.480;2023-02-18T12:44:16;3.63;;;3.43;;
850;SDS011;412;51.400;7.480;2023-02-18T13:06:15;3.90;;;3.70;;
850;SDS011;412;51.400;7.480;2023-02-18T13:09:15;6.03;;;5.43;;
850;SDS011;412;51.400;7.480;2023-02-18T13:12:13;4.10;;;3.90;;
850;SDS011;412;51.400;7.480;2023-02-18T13:17:30;4.60;;;4.40;;
850;SDS011;412;51.400;7.480;2023-02-18T13:20:04;4.23;;;4.03;;
850;SDS011;412;51.400;7.480;2023-02-18T13:22:57;4.83;;;4.53;;
850;SDS011;412;51.400;7.480;2023-02-18T13:25:23;5.23;;;4.40;;
850;SDS011;412;51.400;7.480;2023-02-18T13:30:26;5.13;;;4.83;;
850;SDS011;412;51.400;7.480;2023-02-18T13:35:34;5.70;;;5.40;;
850;SDS011;412;51.400;7.480;2023-02-18T13:38:11;5.70;;;5.40;;
850;SDS011;412;51.400;7.480;2023-02-18T13:40:54;6.20;;;5.80;;
850;SDS011;412;51.400;7.480;2023-02-18T13:48:33;5.23;;;4.93;;
850;SDS011;412;51.400;7.480;2023-02-18T13:51:15;5.50;;;5.17;;
850;SDS011;412;51.400;7.480;2023-02-18T13:54:03;4.60;;;4.40;;
850;SDS011;412;51.400;7.480;2023-02-18T13:57:03;4.47;;;4.33;;
850;SDS011;412;51.400;7.480;2023-02-18T13:59:37;4.90;;;4.70;;
850;SDS011;412;51.400;7.480;2023-02-18T14:02:42;4.50;;;4.20;;
850;SDS011;412;51.400;7.480;2023-02-18T14:05:20;4.40;;;4.20;;
850;SDS011;412;51.400;7.480;2023-02-18T14:08:03;4.27;;;4.03;;
850;SDS011;412;51.400;7.480;2023-02-18T14:10:36;5.40;;;4.70;;
850;SDS011;412;51.400;7.480;2023-02-18T14:16:04;4.80;;;4.50;;
850;SDS011;412;51.400;7.480;2023-02-18T14:23:40;5.67;;;5.27;;
850;SDS011;412;51.400;7.480;2023-02-18T14:26:22;5.13;;;4.83;;
850;SDS011;412;51.400;7.480;2023-02-18T14:29:05;4.67;;;4.47;;
850;SDS011;412;51.400;7.480;2023-02-18T14:37:02;5.70;;;5.30;;
850;SDS011;412;51.400;7.480;2023-02-18T14:39:53;5.87;;;5.37;;
850;SDS011;412;51.400;7.480;2023-02-18T14:51:09;6.70;;;6.20;;
850;SDS011;412;51.400;7.480;2023-02-18T14:53:41;6.47;;;6.07;;
850;SDS011;412;51.400;7.480;2023-02-18T14:56:12;7.43;;;6.83;;
850;SDS011;412;51.400;7.480;2023-02-18T14:58:40;7.33;;;6.80;;
850;SDS011;412;51.400;7.480;2023-02-18T15:03:41;7.50;;;6.90;;
850;SDS011;412;51.400;7.480;2023-02-18T15:08:57;7.90;;;7.20;;
850;SDS011;412;51.400;7.480;2023-02-18T15:11:37;8.10;;;7.30;;
850;SDS011;412;51.400;7.480;2023-02-18T15:14:09;7.47;;;6.93;;
850;SDS011;412;51.400;7.480;2023-02-18T15:16:41;8.20;;;7.40;;
850;SDS011;412;51.400;7.480;2023-02-18T15:19:14;9.33;;;8.30;;
850;SDS011;412;51.400;7.480;2023-02-18T15:21:44;8.50;;;7.80;;
850;SDS011;412;51.400;7.480;2023-02-18T15:26:57;7.80;;;7.10;;
850;SDS011;412;51.400;7.480;2023-02-18T15:29:27;8.53;;;7.73;;
850;SDS011;412;51.400;7.480;2023-02-18T15:31:55;7.77;;;7.13;;
850;SDS011;412;51.400;7.480;2023-02-18T15:36:54;7.93;;;7.20;;
850;SDS011;412;51.400;7.480;2023-02-18T15:39:20;7.80;;;7.10;;
850;SDS011;412;51.400;7.480;2023-02-18T15:41:50;7.80;;;7.00;;
850;SDS011;412;51.400;7.480;2023-02-18T15:44:24;7.33;;;6.63;;
850;SDS011;412;51.400;7.480;2023-02-18T15:46:53;7.80;;;7.00;;
850;SDS011;412;51.400;7.480;2023-02-18T15:49:19;7.83;;;7.20;;
850;SDS011;412;51.400;7.480;2023-02-18T15:51:48;8.20;;;7.50;;
850;SDS011;412;51.400;7.480;2023-02-18T15:54:16;9.80;;;9.00;;
850;SDS011;412;51.400;7.480;2023-02-18T15:56:45;8.47;;;7.80;;
850;SDS011;412;51.400;7.480;2023-02-18T15:59:23;6.93;;;6.33;;
850;SDS011;412;51.400;7.480;2023-02-18T16:04:21;6.40;;;5.90;;
850;SDS011;412;51.400;7.480;2023-02-18T16:06:53;8.20;;;7.20;;
850;SDS011;412;51.400;7.480;2023-02-18T16:09:28;8.10;;;7.37;;
850;SDS011;412;51.400;7.480;2023-02-18T16:11:57;8.50;;;7.60;;
850;SDS011;412;51.400;7.480;2023-02-18T16:14:34;7.83;;;7.23;;
850;SDS011;412;51.400;7.480;2023-02-18T16:19:38;9.30;;;8.40;;
850;SDS011;412;51.400;7.480;2023-02-18T16:27:44;8.67;;;7.70;;
850;SDS011;412;51.400;7.480;2023-02-18T16:30:21;8.77;;;7.97;;
850;SDS011;412;51.400;7.480;2023-02-18T16:32:53;9.40;;;7.90;;
850;SDS011;412;51.400;7.480;2023-02-18T16:35:20;9.90;;;8.90;;
850;SDS011;412;51.400;7.480;2023-02-18T16:37:47;9.70;;;8.73;;
850;SDS011;412;51.400;7.480;2023-02-18T16:42:48;12.47;;;10.73;;
850;SDS011;412;51.400;7.480;2023-02-18T16:45:14;11.37;;;9.63;;
850;SDS011;412;51.400;7.480;2023-02-18T16:47:39;11.80;;;10.40;;
850;SDS011;412;51.400;7.480;2023-02-18T16:50:13;11.07;;;10.07;;
850;SDS011;412;51.400;7.480;2023-02-18T16:52:46;14.37;;;10.37;;
850;SDS011;412;51.400;7.480;2023-02-18T16:57:49;11.40;;;10.20;;
850;SDS011;412;51.400;7.480;2023-02-18T17:00:16;12.53;;;11.27;;
850;SDS011;412;51.400;7.480;2023-02-18T17:02:43;11.90;;;10.73;;
850;SDS011;412;51.400;7.480;2023-02-18T17:05:15;14.60;;;10.60;;
850;SDS011;412;51.400;7.480;2023-02-18T17:07:42;12.60;;;10.27;;
850;SDS011;412;51.400;7.480;2023-02-18T17:10:08;12.50;;;10.17;;
850;SDS011;412;51.400;7.480;2023-02-18T17:12:34;10.63;;;9.63;;
850;SDS011;412;51.400;7.480;2023-02-18T17:15:08;10.87;;;9.77;;
850;SDS011;412;51.400;7.480;2023-02-18T17:20:23;10.47;;;9.43;;
850;SDS011;412;51.400;7.480;2023-02-18T17:22:49;14.13;;;10.03;;
850;SDS011;412;51.400;7.480;2023-02-18T17:25:22;10.60;;;8.77;;
850;SDS011;412;51.400;7.480;2023-02-18T17:27:55;10.93;;;9.53;;
850;SDS011;412;51.400;7.480;2023-02-18T17:30:21;10.23;;;9.23;;
850;SDS011;412;51.400;7.480;2023-02-18T17:32:47;11.67;;;10.20;;
850;SDS011;412;51.400;7.480;2023-02-18T17:35:22;12.27;;;9.63;;
850;SDS011;412;51.400;7.480;2023-02-18T17:37:48;10.40;;;9.03;;
850;SDS011;412;51.400;7.480;2023-02-18T17:40:15;11.17;;;10.07;;
850;SDS011;412;51.400;7.480;2023-02-18T17:42:42;10.27;;;9.17;;
850;SDS011;412;51.400;7.480;2023-02-18T17:45:28;11.13;;;10.03;;
850;SDS011;412;51.400;7.480;2023-02-18T17:47:59;11.07;;;10.00;;
850;SDS011;412;51.400;7.480;2023-02-18T17:50:26;12.57;;;11.30;;
850;SDS011;412;51.400;7.480;2023-02-18T17:52:52;13.70;;;10.50;;
850;SDS011;412;51.400;7.480;2023-02-18T17:55:20;12.73;;;10.23;;
850;SDS011;412;51.400;7.480;2023-02-18T17:57:48;13.80;;;10.83;;
850;SDS011;412;51.400;7.480;2023-02-18T18:00:15;10.10;;;9.20;;
850;SDS011;412;51.400;7.480;2023-02-18T18:02:44;10.53;;;9.43;;
850;SDS011;412;51.400;7.480;2023-02-18T18:05:16;11.87;;;10.77;;
850;SDS011;412;51.400;7.480;2023-02-18T18:08:09;10.73;;;9.73;;
850;SDS011;412;51.400;7.480;2023-02-18T18:10:36;13.00;;;10.50;;
850;SDS011;412;51.400;7.480;2023-02-18T18:13:07;12.87;;;10.80;;
850;SDS011;412;51.400;7.480;2023-02-18T18:15:47;11.23;;;9.90;;
850;SDS011;412;51.400;7.480;2023-02-18T18:18:14;13.10;;;11.80;;
850;SDS011;412;51.400;7.480;2023-02-18T18:20:41;12.27;;;11.03;;
850;SDS011;412;51.400;7.480;2023-02-18T18:23:13;10.73;;;9.70;;
850;SDS011;412;51.400;7.480;2023-02-18T18:25:41;10.47;;;9.50;;
850;SDS011;412;51.400;7.480;2023-02-18T18:28:11;11.17;;;10.00;;
850;SDS011;412;51.400;7.480;2023-02-18T18:30:45;21.13;;;10.67;;
850;SDS011;412;51.400;7.480;2023-02-18T18:35:40;10.90;;;9.90;;
850;SDS011;412;51.400;7.480;2023-02-18T18:38:07;11.07;;;9.97;;
850;SDS011;412;51.400;7.480;2023-02-18T18:40:33;13.90;;;10.70;;
850;SDS011;412;51.400;7.480;2023-02-18T18:43:00;12.23;;;11.10;;
850;SDS011;412;51.400;7.480;2023-02-18T18:45:30;14.17;;;12.30;;
850;SDS011;412;51.400;7.480;2023-02-18T18:48:03;12.57;;;11.33;;
850;SDS011;412;51.400;7.480;2023-02-18T18:50:30;13.10;;;11.70;;